Time,TemperatureF,DewpointF,PressureIn,WindDirection,WindDirectionDegrees,WindSpeedMPH,WindSpeedGustMPH,Humidity,HourlyPrecipIn,Conditions,Clouds,dailyrainin,SolarRadiationWatts/m^2,SoftwareType,DateUTC
2013-06-10 00:03:00,74.2,66.9,29.89,WSW,238,0.0,0.0,78,0.00,,,0.00,0,Wunderground v.1.15,2013-06-10 05:03:00,
2013-06-10 00:10:00,74.0,66.7,29.89,WSW,238,0.0,0.0,78,0.00,,,0.00,0,Wunderground v.1.15,2013-06-10 05:10:00,
2013-06-10 00:19:00,73.9,66.6,29.89,WSW,238,0.0,0.0,78,0.00,,,0.00,0,Wunderground v.1.15,2013-06-10 05:19:00,
2013-06-10 00:26:00,73.8,66.9,29.89,WSW,238,0.0,0.0,79,0.00,,,0.00,0,Wunderground v.1.15,2013-06-10 05:26:00,
2013-06-10 00:32:00,73.5,66.6,29.88,WSW,238,0.0,0.0,79,0.00,,,0.00,0,Wunderground v.1.15,2013-06-10 05:32:00,
2013-06-10 00:46:00,71.9,66.1,29.89,WSW,238,1.0,3.0,82,0.00,,,0.00,0,Wunderground v.1.15,2013-06-10 05:46:00,
2013-06-10 00:52:00,72.4,67.3,29.89,SW,227,3.0,3.0,84,0.00,,,0.00,0,Wunderground v.1.15,2013-06-10 05:52:00,
2013-06-10 01:01:00,73.3,68.2,29.89,SSW,207,4.0,5.0,84,0.00,,,0.00,0,Wunderground v.1.15,2013-06-10 06:01:00,
2013-06-10 01:10:00,73.1,68.3,29.89,SSW,207,3.0,3.0,85,0.00,,,0.00,0,Wunderground v.1.15,2013-06-10 06:10:00,
2013-06-10 01:16:00,72.9,68.1,29.89,SSW,205,3.0,3.0,85,0.00,,,0.00,0,Wunderground v.1.15,2013-06-10 06:16:00,
2013-06-10 01:22:00,72.7,68.3,29.89,SSW,205,3.0,3.0,86,0.00,,,0.00,0,Wunderground v.1.15,2013-06-10 06:22:00,
2013-06-10 01:30:00,72.3,67.9,29.89,SSW,205,2.0,3.0,86,0.00,,,0.00,0,Wunderground v.1.15,2013-06-10 06:30:00,
2013-06-10 01:40:00,72.0,67.9,29.89,SSW,205,1.0,4.0,87,0.00,,,0.00,0,Wunderground v.1.15,2013-06-10 06:40:00,
2013-06-10 01:46:00,71.8,68.1,29.89,SSW,205,0.0,1.0,88,0.00,,,0.00,0,Wunderground v.1.15,2013-06-10 06:46:00,
2013-06-10 01:52:00,71.6,67.9,29.88,SSW,205,1.0,1.0,88,0.00,,,0.00,0,Wunderground v.1.15,2013-06-10 06:52:00,
2013-06-10 02:00:00,71.7,68.3,29.89,SSW,205,1.0,1.0,89,0.00,,,0.00,0,Wunderground v.1.15,2013-06-10 07:00:00,
2013-06-10 02:06:00,72.0,68.6,29.89,SSW,205,0.0,1.0,89,0.00,,,0.00,0,Wunderground v.1.15,2013-06-10 07:06:00,
2013-06-10 02:12:00,72.1,68.7,29.89,SSW,205,0.0,1.0,89,0.00,,,0.00,0,Wunderground v.1.15,2013-06-10 07:12:00,
2013-06-10 02:20:00,72.4,68.6,29.89,SSW,205,0.0,0.0,88,0.00,,,0.00,0,Wunderground v.1.15,2013-06-10 07:20:00,
2013-06-10 02:26:00,72.2,68.4,29.89,SSW,205,0.0,0.0,88,0.00,,,0.00,0,Wunderground v.1.15,2013-06-10 07:26:00,
2013-06-10 02:32:00,72.1,68.7,29.89,SSW,205,0.0,0.0,89,0.00,,,0.00,0,Wunderground v.1.15,2013-06-10 07:32:00,
2013-06-10 02:40:00,71.9,68.5,29.89,SSW,205,0.0,0.0,89,0.00,,,0.00,0,Wunderground v.1.15,2013-06-10 07:40:00,
2013-06-10 02:46:00,71.8,68.4,29.89,SSW,205,0.0,0.0,89,0.00,,,0.00,0,Wunderground v.1.15,2013-06-10 07:46:00,
2013-06-10 02:52:00,71.6,68.5,29.89,SSW,205,0.0,0.0,90,0.00,,,0.00,0,Wunderground v.1.15,2013-06-10 07:52:00,
2013-06-10 03:00:00,71.3,68.5,29.89,SSW,205,0.0,0.0,91,0.00,,,0.00,0,Wunderground v.1.15,2013-06-10 08:00:00,
2013-06-10 03:06:00,71.2,68.4,29.89,SSW,205,0.0,0.0,91,0.00,,,0.00,0,Wunderground v.1.15,2013-06-10 08:06:00,
2013-06-10 03:12:00,71.1,68.3,29.89,SSW,205,0.0,0.0,91,0.00,,,0.00,0,Wunderground v.1.15,2013-06-10 08:12:00,
2013-06-10 03:20:00,70.9,68.1,29.89,SSW,205,0.0,0.0,91,0.00,,,0.00,0,Wunderground v.1.15,2013-06-10 08:20:00,
2013-06-10 03:26:00,70.8,68.0,29.89,SSW,205,0.0,0.0,91,0.00,,,0.00,0,Wunderground v.1.15,2013-06-10 08:26:00,
2013-06-10 03:32:00,70.7,67.9,29.89,SSW,205,0.0,0.0,91,0.00,,,0.00,0,Wunderground v.1.15,2013-06-10 08:32:00,
2013-06-10 03:40:00,70.8,68.4,29.89,SSW,205,0.0,0.0,92,0.00,,,0.00,0,Wunderground v.1.15,2013-06-10 08:40:00,
2013-06-10 03:50:00,70.7,68.3,29.89,SSW,205,0.0,0.0,92,0.00,,,0.00,0,Wunderground v.1.15,2013-06-10 08:50:00,
2013-06-10 04:10:00,70.3,67.9,29.89,SSW,205,0.0,0.0,92,0.00,,,0.00,0,Wunderground v.1.15,2013-06-10 09:10:00,
2013-06-10 04:16:00,70.2,68.1,29.89,SSW,205,0.0,0.0,93,0.00,,,0.00,0,Wunderground v.1.15,2013-06-10 09:16:00,
2013-06-10 04:22:00,70.2,68.1,29.89,SSW,205,0.0,0.0,93,0.00,,,0.00,0,Wunderground v.1.15,2013-06-10 09:22:00,
2013-06-10 04:30:00,70.0,67.9,29.89,SSW,205,0.0,0.0,93,0.00,,,0.00,0,Wunderground v.1.15,2013-06-10 09:30:00,
2013-06-10 04:37:00,70.1,68.0,29.89,SSW,205,0.0,0.0,93,0.00,,,0.00,0,Wunderground v.1.15,2013-06-10 09:37:00,
2013-06-10 04:42:00,70.1,68.0,29.89,SSW,205,0.0,0.0,93,0.00,,,0.00,0,Wunderground v.1.15,2013-06-10 09:42:00,
2013-06-10 04:50:00,70.1,68.0,29.89,SSW,205,0.0,0.0,93,0.00,,,0.00,0,Wunderground v.1.15,2013-06-10 09:50:00,
2013-06-10 04:56:00,70.0,67.9,29.89,SSW,205,0.0,0.0,93,0.00,,,0.00,0,Wunderground v.1.15,2013-06-10 09:56:00,
2013-06-10 05:06:00,69.8,67.7,29.90,SSW,205,0.0,0.0,93,0.00,,,0.00,0,Wunderground v.1.15,2013-06-10 10:06:00,
2013-06-10 05:12:00,69.5,67.4,29.90,SSW,205,0.0,0.0,93,0.00,,,0.00,0,Wunderground v.1.15,2013-06-10 10:12:00,
2013-06-10 05:20:00,69.4,67.6,29.90,SSW,205,0.0,0.0,94,0.00,,,0.00,0,Wunderground v.1.15,2013-06-10 10:20:00,
2013-06-10 05:30:00,69.2,67.4,29.90,SSW,205,0.0,0.0,94,0.00,,,0.00,0,Wunderground v.1.15,2013-06-10 10:30:00,
2013-06-10 05:36:00,69.0,67.2,29.90,SSW,205,0.0,0.0,94,0.00,,,0.00,0,Wunderground v.1.15,2013-06-10 10:36:00,
2013-06-10 05:42:00,68.9,67.1,29.91,SSW,205,0.0,0.0,94,0.00,,,0.00,0,Wunderground v.1.15,2013-06-10 10:42:00,
2013-06-10 05:50:00,68.9,67.1,29.91,SSW,205,0.0,0.0,94,0.00,,,0.00,0,Wunderground v.1.15,2013-06-10 10:50:00,
2013-06-10 06:00:00,68.8,67.0,29.91,SSW,205,0.0,0.0,94,0.00,,,0.00,0,Wunderground v.1.15,2013-06-10 11:00:00,
2013-06-10 06:10:00,68.7,66.9,29.91,SSW,205,0.0,0.0,94,0.00,,,0.00,0,Wunderground v.1.15,2013-06-10 11:10:00,
2013-06-10 06:16:00,68.8,67.0,29.91,SSW,205,0.0,0.0,94,0.00,,,0.00,0,Wunderground v.1.15,2013-06-10 11:16:00,
2013-06-10 06:22:00,69.0,67.5,29.91,SSW,205,0.0,0.0,95,0.00,,,0.00,5,Wunderground v.1.15,2013-06-10 11:22:00,
2013-06-10 06:30:00,68.8,67.0,29.92,SSW,205,0.0,0.0,94,0.00,,,0.00,9,Wunderground v.1.15,2013-06-10 11:30:00,
2013-06-10 06:36:00,68.6,66.8,29.92,SSW,205,0.0,0.0,94,0.00,,,0.00,12,Wunderground v.1.15,2013-06-10 11:36:00,
2013-06-10 06:42:00,68.5,66.7,29.92,SSW,205,0.0,0.0,94,0.00,,,0.00,18,Wunderground v.1.15,2013-06-10 11:42:00,
2013-06-10 06:50:00,68.5,66.7,29.92,SSW,205,0.0,0.0,94,0.00,,,0.00,21,Wunderground v.1.15,2013-06-10 11:50:00,
2013-06-10 06:56:00,68.6,66.8,29.92,SSW,205,0.0,0.0,94,0.00,,,0.00,35,Wunderground v.1.15,2013-06-10 11:56:00,
2013-06-10 07:06:00,68.5,66.7,29.92,SSW,205,0.0,0.0,94,0.00,,,0.00,53,Wunderground v.1.15,2013-06-10 12:06:00,
2013-06-10 07:12:00,68.6,66.8,29.92,SSW,205,0.0,0.0,94,0.00,,,0.00,70,Wunderground v.1.15,2013-06-10 12:12:00,
2013-06-10 07:20:00,69.1,67.6,29.92,SSW,205,0.0,0.0,95,0.00,,,0.00,90,Wunderground v.1.15,2013-06-10 12:20:00,
2013-06-10 07:26:00,69.6,68.1,29.93,SSW,205,0.0,0.0,95,0.00,,,0.00,109,Wunderground v.1.15,2013-06-10 12:26:00,
2013-06-10 07:32:00,70.0,68.5,29.92,SSW,205,0.0,0.0,95,0.00,,,0.00,127,Wunderground v.1.15,2013-06-10 12:32:00,
2013-06-10 07:40:00,70.5,69.0,29.92,SSW,205,0.0,0.0,95,0.00,,,0.00,153,Wunderground v.1.15,2013-06-10 12:40:00,
2013-06-10 07:46:00,70.8,69.3,29.92,SSW,205,1.0,1.0,95,0.00,,,0.00,171,Wunderground v.1.15,2013-06-10 12:46:00,
2013-06-10 07:52:00,70.9,69.4,29.92,SSW,205,3.0,3.0,95,0.00,,,0.00,185,Wunderground v.1.15,2013-06-10 12:52:00,
2013-06-10 07:58:00,71.1,69.6,29.93,SSW,205,3.0,3.0,95,0.00,,,0.00,206,Wunderground v.1.15,2013-06-10 12:58:00,
2013-06-10 08:04:00,71.3,69.8,29.93,SSW,205,3.0,4.0,95,0.00,,,0.00,221,Wunderground v.1.15,2013-06-10 13:04:00,
2013-06-10 08:10:00,71.6,70.1,29.93,SSW,205,3.0,3.0,95,0.00,,,0.00,241,Wunderground v.1.15,2013-06-10 13:10:00,
2013-06-10 08:16:00,72.0,70.5,29.93,SSW,205,4.0,5.0,95,0.00,,,0.00,260,Wunderground v.1.15,2013-06-10 13:16:00,
2013-06-10 08:22:00,72.5,71.0,29.93,SSW,205,4.0,4.0,95,0.00,,,0.00,279,Wunderground v.1.15,2013-06-10 13:22:00,
2013-06-10 08:28:00,73.0,71.2,29.93,SSW,205,3.0,4.0,94,0.00,,,0.00,304,Wunderground v.1.15,2013-06-10 13:28:00,
2013-06-10 08:36:00,73.6,71.4,29.93,SSW,205,4.0,5.0,93,0.00,,,0.00,330,Wunderground v.1.15,2013-06-10 13:36:00,
2013-06-10 08:42:00,74.3,71.8,29.93,SW,231,5.0,5.0,92,0.00,,,0.00,352,Wunderground v.1.15,2013-06-10 13:42:00,
2013-06-10 08:48:00,75.1,71.6,29.93,SW,229,5.0,6.0,89,0.00,,,0.00,371,Wunderground v.1.15,2013-06-10 13:48:00,
2013-06-10 08:54:00,75.8,71.7,29.93,WSW,241,6.0,8.0,87,0.00,,,0.00,388,Wunderground v.1.15,2013-06-10 13:54:00,
2013-06-10 09:00:00,76.7,72.2,29.93,WSW,237,5.0,5.0,86,0.00,,,0.00,406,Wunderground v.1.15,2013-06-10 14:00:00,
2013-06-10 09:10:00,77.7,72.1,29.93,SSW,209,5.0,5.0,83,0.00,,,0.00,438,Wunderground v.1.15,2013-06-10 14:10:00,
2013-06-10 09:16:00,78.5,72.2,29.93,SSW,209,4.0,6.0,81,0.00,,,0.00,459,Wunderground v.1.15,2013-06-10 14:16:00,
2013-06-10 09:22:00,79.2,71.7,29.93,SW,216,5.0,5.0,78,0.00,,,0.00,480,Wunderground v.1.15,2013-06-10 14:22:00,
2013-06-10 09:30:00,79.7,71.1,29.93,WSW,240,6.0,6.0,75,0.00,,,0.00,504,Wunderground v.1.15,2013-06-10 14:30:00,
2013-06-10 09:36:00,80.0,71.4,29.93,WSW,252,7.0,8.0,75,0.00,,,0.00,524,Wunderground v.1.15,2013-06-10 14:36:00,
2013-06-10 09:42:00,80.4,71.3,29.93,WSW,257,6.0,7.0,74,0.00,,,0.00,543,Wunderground v.1.15,2013-06-10 14:42:00,
2013-06-10 09:50:00,81.0,71.5,29.93,SW,227,6.0,7.0,73,0.00,,,0.00,566,Wunderground v.1.15,2013-06-10 14:50:00,
2013-06-10 09:56:00,81.2,70.9,29.92,WSW,242,6.0,7.0,71,0.00,,,0.00,585,Wunderground v.1.15,2013-06-10 14:56:00,
2013-06-10 10:02:00,81.6,71.3,29.92,WSW,238,6.0,7.0,71,0.00,,,0.00,603,Wunderground v.1.15,2013-06-10 15:02:00,
2013-06-10 10:08:00,82.1,71.3,29.92,SW,224,6.0,7.0,70,0.00,,,0.00,622,Wunderground v.1.15,2013-06-10 15:08:00,
2013-06-10 10:14:00,82.5,71.3,29.92,SW,236,6.0,7.0,69,0.00,,,0.00,636,Wunderground v.1.15,2013-06-10 15:14:00,
2013-06-10 10:20:00,82.8,71.6,29.92,WSW,238,6.0,6.0,69,0.00,,,0.00,652,Wunderground v.1.15,2013-06-10 15:20:00,
2013-06-10 10:26:00,83.4,71.7,29.92,SW,232,5.0,6.0,68,0.00,,,0.00,670,Wunderground v.1.15,2013-06-10 15:26:00,
2013-06-10 10:32:00,83.7,71.6,29.92,WSW,237,4.0,5.0,67,0.00,,,0.00,684,Wunderground v.1.15,2013-06-10 15:32:00,
2013-06-10 10:39:00,84.0,71.9,29.92,WSW,238,4.0,7.0,67,0.00,,,0.00,700,Wunderground v.1.15,2013-06-10 15:39:00,
2013-06-10 10:46:00,84.2,71.6,29.92,SW,236,3.0,6.0,66,0.00,,,0.00,722,Wunderground v.1.15,2013-06-10 15:46:00,
2013-06-10 10:52:00,84.6,71.5,29.92,SSW,209,5.0,5.0,65,0.00,,,0.00,738,Wunderground v.1.15,2013-06-10 15:52:00,
2013-06-10 10:59:00,85.2,72.1,29.92,SSW,198,5.0,6.0,65,0.00,,,0.00,754,Wunderground v.1.15,2013-06-10 15:59:00,
2013-06-10 11:04:00,85.6,71.1,29.92,South,190,4.0,5.0,62,0.00,,,0.00,766,Wunderground v.1.15,2013-06-10 16:04:00,
2013-06-10 11:10:00,86.1,72.0,29.92,SSW,194,4.0,4.0,63,0.00,,,0.00,780,Wunderground v.1.15,2013-06-10 16:10:00,
2013-06-10 11:16:00,86.6,72.0,29.92,SSW,194,4.0,6.0,62,0.00,,,0.00,791,Wunderground v.1.15,2013-06-10 16:16:00,
2013-06-10 11:22:00,86.9,70.8,29.92,SSW,192,5.0,5.0,59,0.00,,,0.00,805,Wunderground v.1.15,2013-06-10 16:22:00,
2013-06-10 11:29:00,86.9,70.3,29.92,SSW,207,6.0,6.0,58,0.00,,,0.00,817,Wunderground v.1.15,2013-06-10 16:29:00,
2013-06-10 11:39:00,87.4,71.3,29.91,SSW,206,6.0,10.0,59,0.00,,,0.00,838,Wunderground v.1.15,2013-06-10 16:39:00,
2013-06-10 11:50:00,87.6,70.5,29.92,SSW,211,6.0,6.0,57,0.00,,,0.00,860,Wunderground v.1.15,2013-06-10 16:50:00,
2013-06-10 11:56:00,88.1,71.5,29.91,SW,234,6.0,6.0,58,0.00,,,0.00,868,Wunderground v.1.15,2013-06-10 16:56:00,
2013-06-10 12:02:00,88.6,70.9,29.91,SW,221,6.0,6.0,56,0.00,,,0.00,875,Wunderground v.1.15,2013-06-10 17:02:00,
2013-06-10 12:08:00,88.8,71.1,29.91,SW,222,6.0,12.0,56,0.00,,,0.00,888,Wunderground v.1.15,2013-06-10 17:08:00,
2013-06-10 12:14:00,89.3,70.5,29.91,SW,217,5.0,6.0,54,0.00,,,0.00,895,Wunderground v.1.15,2013-06-10 17:14:00,
2013-06-10 12:20:00,89.3,69.9,29.90,SW,219,5.0,8.0,53,0.00,,,0.00,898,Wunderground v.1.15,2013-06-10 17:20:00,
2013-06-10 12:26:00,89.3,69.9,29.90,WSW,246,7.0,10.0,53,0.00,,,0.00,904,Wunderground v.1.15,2013-06-10 17:26:00,
2013-06-10 12:32:00,89.5,69.5,29.90,SSW,207,8.0,8.0,52,0.00,,,0.00,912,Wunderground v.1.15,2013-06-10 17:32:00,
2013-06-10 12:39:00,90.2,69.0,29.90,SW,219,7.0,9.0,50,0.00,,,0.00,919,Wunderground v.1.15,2013-06-10 17:39:00,
2013-06-10 12:49:00,90.9,69.7,29.90,South,190,7.0,8.0,50,0.00,,,0.00,928,Wunderground v.1.15,2013-06-10 17:49:00,
2013-06-10 12:54:00,91.3,70.6,29.89,WSW,242,6.0,10.0,51,0.00,,,0.00,933,Wunderground v.1.15,2013-06-10 17:54:00,
2013-06-10 13:00:00,91.0,68.6,29.89,SW,221,7.0,8.0,48,0.00,,,0.00,937,Wunderground v.1.15,2013-06-10 18:00:00,
2013-06-10 13:10:00,91.9,68.8,29.89,SSW,213,6.0,8.0,47,0.00,,,0.00,939,Wunderground v.1.15,2013-06-10 18:10:00,
2013-06-10 13:16:00,91.8,66.8,29.89,South,169,6.0,8.0,44,0.00,,,0.00,946,Wunderground v.1.15,2013-06-10 18:16:00,
2013-06-10 13:22:00,92.3,67.2,29.88,SSW,210,7.0,8.0,44,0.00,,,0.00,944,Wunderground v.1.15,2013-06-10 18:22:00,
2013-06-10 13:29:00,92.7,67.6,29.88,SW,221,6.0,8.0,44,0.00,,,0.00,946,Wunderground v.1.15,2013-06-10 18:29:00,
2013-06-10 13:34:00,92.6,68.8,29.88,WSW,250,7.0,8.0,46,0.00,,,0.00,944,Wunderground v.1.15,2013-06-10 18:34:00,
2013-06-10 13:40:00,92.8,67.7,29.87,SSW,200,6.0,6.0,44,0.00,,,0.00,946,Wunderground v.1.15,2013-06-10 18:40:00,
2013-06-10 13:46:00,93.3,65.4,29.87,SSW,197,5.0,7.0,40,0.00,,,0.00,946,Wunderground v.1.15,2013-06-10 18:46:00,
2013-06-10 13:52:00,94.1,65.4,29.88,South,179,6.0,8.0,39,0.00,,,0.00,946,Wunderground v.1.15,2013-06-10 18:52:00,
2013-06-10 13:59:00,94.5,65.0,29.88,South,175,5.0,8.0,38,0.00,,,0.00,942,Wunderground v.1.15,2013-06-10 18:59:00,
2013-06-10 14:04:00,94.6,64.3,29.88,South,184,5.0,5.0,37,0.00,,,0.00,937,Wunderground v.1.15,2013-06-10 19:04:00,
2013-06-10 14:10:00,94.6,65.8,29.88,SSW,210,4.0,6.0,39,0.00,,,0.00,939,Wunderground v.1.15,2013-06-10 19:10:00,
2013-06-10 14:16:00,94.5,64.2,29.88,SSW,202,6.0,11.0,37,0.00,,,0.00,935,Wunderground v.1.15,2013-06-10 19:16:00,
2013-06-10 14:22:00,94.8,65.2,29.88,SSW,200,6.0,7.0,38,0.00,,,0.00,928,Wunderground v.1.15,2013-06-10 19:22:00,
2013-06-10 14:28:00,94.8,65.2,29.88,SSE,163,5.0,9.0,38,0.00,,,0.00,933,Wunderground v.1.15,2013-06-10 19:28:00,
2013-06-10 14:34:00,95.2,64.8,29.88,SSE,167,5.0,7.0,37,0.00,,,0.00,932,Wunderground v.1.15,2013-06-10 19:34:00,
2013-06-10 14:40:00,95.3,65.7,29.88,South,183,5.0,6.0,38,0.00,,,0.00,979,Wunderground v.1.15,2013-06-10 19:40:00,
2013-06-10 14:50:00,94.6,65.1,29.88,SW,219,5.0,5.0,38,0.00,,,0.00,935,Wunderground v.1.15,2013-06-10 19:50:00,
2013-06-10 14:56:00,95.1,64.7,29.88,South,173,5.0,8.0,37,0.00,,,0.00,914,Wunderground v.1.15,2013-06-10 19:56:00,
2013-06-10 15:02:00,95.2,65.6,29.88,South,178,6.0,6.0,38,0.00,,,0.00,918,Wunderground v.1.15,2013-06-10 20:02:00,
2013-06-10 15:09:00,95.7,62.8,29.88,SSE,165,6.0,9.0,34,0.00,,,0.00,891,Wunderground v.1.15,2013-06-10 20:09:00,
2013-06-10 15:16:00,96.4,64.3,29.87,SE,145,6.0,9.0,35,0.00,,,0.00,874,Wunderground v.1.15,2013-06-10 20:16:00,
2013-06-10 15:22:00,96.6,63.6,29.88,SSE,166,8.0,9.0,34,0.00,,,0.00,865,Wunderground v.1.15,2013-06-10 20:22:00,
2013-06-10 15:28:00,96.2,64.1,29.87,SE,146,8.0,9.0,35,0.00,,,0.00,851,Wunderground v.1.15,2013-06-10 20:28:00,
2013-06-10 15:36:00,95.7,63.7,29.87,ESE,115,7.0,8.0,35,0.00,,,0.00,840,Wunderground v.1.15,2013-06-10 20:36:00,
2013-06-10 15:46:00,96.1,62.3,29.87,ESE,109,6.0,9.0,33,0.00,,,0.00,814,Wunderground v.1.15,2013-06-10 20:46:00,
2013-06-10 15:52:00,96.1,61.5,29.87,SE,125,9.0,12.0,32,0.00,,,0.00,805,Wunderground v.1.15,2013-06-10 20:52:00,
2013-06-10 15:58:00,95.9,63.0,29.87,SE,146,9.0,12.0,34,0.00,,,0.00,798,Wunderground v.1.15,2013-06-10 20:58:00,
2013-06-10 16:04:00,96.0,62.3,29.87,SSE,164,7.0,10.0,33,0.00,,,0.00,777,Wunderground v.1.15,2013-06-10 21:04:00,
2013-06-10 16:10:00,96.4,63.5,29.87,SSE,152,6.0,6.0,34,0.00,,,0.00,770,Wunderground v.1.15,2013-06-10 21:10:00,
2013-06-10 16:16:00,96.1,64.0,29.87,ESE,119,6.0,9.0,35,0.00,,,0.00,752,Wunderground v.1.15,2013-06-10 21:16:00,
2013-06-10 16:22:00,95.9,63.0,29.87,SE,129,7.0,12.0,34,0.00,,,0.00,740,Wunderground v.1.15,2013-06-10 21:22:00,
2013-06-10 16:28:00,96.2,63.3,29.86,SE,125,7.0,12.0,34,0.00,,,0.00,724,Wunderground v.1.15,2013-06-10 21:28:00,
2013-06-10 16:34:00,95.8,62.1,29.86,SSE,157,8.0,12.0,33,0.00,,,0.00,715,Wunderground v.1.15,2013-06-10 21:34:00,
2013-06-10 16:40:00,95.9,63.8,29.86,SSE,163,5.0,5.0,35,0.00,,,0.00,696,Wunderground v.1.15,2013-06-10 21:40:00,
2013-06-10 16:46:00,96.2,64.1,29.86,SSE,163,5.0,10.0,35,0.00,,,0.00,682,Wunderground v.1.15,2013-06-10 21:46:00,
2013-06-10 16:52:00,96.0,63.9,29.86,SE,142,5.0,6.0,35,0.00,,,0.00,661,Wunderground v.1.15,2013-06-10 21:52:00,
2013-06-10 16:59:00,96.3,64.2,29.86,SE,139,3.0,6.0,35,0.00,,,0.00,643,Wunderground v.1.15,2013-06-10 21:59:00,
2013-06-10 17:06:00,96.3,63.4,29.86,SE,135,6.0,7.0,34,0.00,,,0.00,626,Wunderground v.1.15,2013-06-10 22:06:00,
2013-06-10 17:12:00,96.1,63.2,29.85,ESE,103,6.0,6.0,34,0.00,,,0.00,605,Wunderground v.1.15,2013-06-10 22:12:00,
2013-06-10 17:18:00,96.1,64.0,29.86,ESE,103,4.0,6.0,35,0.00,,,0.00,578,Wunderground v.1.15,2013-06-10 22:18:00,
2013-06-10 17:24:00,96.2,64.1,29.85,ESE,105,4.0,6.0,35,0.00,,,0.00,564,Wunderground v.1.15,2013-06-10 22:24:00,
2013-06-10 17:30:00,95.9,64.7,29.85,ESE,117,5.0,7.0,36,0.00,,,0.00,550,Wunderground v.1.15,2013-06-10 22:30:00,
2013-06-10 17:36:00,95.8,63.8,29.85,ESE,116,6.0,7.0,35,0.00,,,0.00,529,Wunderground v.1.15,2013-06-10 22:36:00,
2013-06-10 17:42:00,95.5,62.7,29.85,ESE,116,5.0,6.0,34,0.00,,,0.00,512,Wunderground v.1.15,2013-06-10 22:42:00,
2013-06-10 17:49:00,95.8,62.1,29.85,SE,124,5.0,8.0,33,0.00,,,0.00,490,Wunderground v.1.15,2013-06-10 22:49:00,
2013-06-10 17:56:00,95.5,62.7,29.85,ESE,107,9.0,12.0,34,0.00,,,0.00,468,Wunderground v.1.15,2013-06-10 22:56:00,
2013-06-10 18:02:00,95.4,61.7,29.85,East,101,7.0,8.0,33,0.00,,,0.00,441,Wunderground v.1.15,2013-06-10 23:02:00,
2013-06-10 18:08:00,95.4,61.7,29.85,SE,126,9.0,15.0,33,0.00,,,0.00,425,Wunderground v.1.15,2013-06-10 23:08:00,
2013-06-10 18:14:00,95.3,62.5,29.85,ESE,118,9.0,9.0,34,0.00,,,0.00,410,Wunderground v.1.15,2013-06-10 23:14:00,
2013-06-10 18:20:00,95.2,58.9,29.85,ESE,105,8.0,15.0,30,0.00,,,0.00,390,Wunderground v.1.15,2013-06-10 23:20:00,
2013-06-10 18:26:00,95.1,59.7,29.85,ESE,113,9.0,15.0,31,0.00,,,0.00,371,Wunderground v.1.15,2013-06-10 23:26:00,
2013-06-10 18:32:00,95.1,58.8,29.85,ESE,105,8.0,9.0,30,0.00,,,0.00,348,Wunderground v.1.15,2013-06-10 23:32:00,
2013-06-10 18:39:00,95.0,59.6,29.84,ESE,105,8.0,12.0,31,0.00,,,0.00,330,Wunderground v.1.15,2013-06-10 23:39:00,
2013-06-10 18:44:00,94.9,58.6,29.85,ESE,114,7.0,11.0,30,0.00,,,0.00,311,Wunderground v.1.15,2013-06-10 23:44:00,
2013-06-10 18:50:00,94.7,57.5,29.85,ESE,117,7.0,8.0,29,0.00,,,0.00,288,Wunderground v.1.15,2013-06-10 23:50:00,
2013-06-10 18:56:00,94.6,59.3,29.85,ESE,113,7.0,9.0,31,0.00,,,0.00,274,Wunderground v.1.15,2013-06-10 23:56:00,
2013-06-10 19:02:00,94.3,59.9,29.85,ESE,119,7.0,7.0,32,0.00,,,0.00,248,Wunderground v.1.15,2013-06-11 00:02:00,
2013-06-10 19:08:00,93.8,62.0,29.85,SE,130,9.0,15.0,35,0.00,,,0.00,227,Wunderground v.1.15,2013-06-11 00:08:00,
2013-06-10 19:16:00,93.3,63.1,29.86,SE,128,8.0,12.0,37,0.00,,,0.00,195,Wunderground v.1.15,2013-06-11 00:16:00,
2013-06-10 19:22:00,92.9,64.3,29.86,SE,125,9.0,9.0,39,0.00,,,0.00,176,Wunderground v.1.15,2013-06-11 00:22:00,
2013-06-10 19:29:00,92.5,63.9,29.86,SE,128,9.0,10.0,39,0.00,,,0.00,151,Wunderground v.1.15,2013-06-11 00:29:00,
2013-06-10 19:34:00,92.2,65.1,29.86,SE,129,8.0,11.0,41,0.00,,,0.00,135,Wunderground v.1.15,2013-06-11 00:34:00,
2013-06-10 19:40:00,91.9,66.9,29.87,SE,144,8.0,10.0,44,0.00,,,0.00,114,Wunderground v.1.15,2013-06-11 00:40:00,
2013-06-10 19:48:00,91.4,67.1,29.87,SE,142,6.0,10.0,45,0.00,,,0.00,88,Wunderground v.1.15,2013-06-11 00:48:00,
2013-06-10 19:54:00,90.9,66.6,29.87,SSE,148,7.0,10.0,45,0.00,,,0.00,72,Wunderground v.1.15,2013-06-11 00:54:00,
2013-06-10 20:00:00,90.5,66.9,29.87,SSE,158,8.0,8.0,46,0.00,,,0.00,54,Wunderground v.1.15,2013-06-11 01:00:00,
2013-06-10 20:09:00,89.7,67.4,29.87,SSE,161,7.0,8.0,48,0.00,,,0.00,32,Wunderground v.1.15,2013-06-11 01:09:00,
2013-06-10 20:20:00,88.9,67.9,29.87,SSE,160,8.0,8.0,50,0.00,,,0.00,14,Wunderground v.1.15,2013-06-11 01:20:00,
2013-06-10 20:26:00,88.6,68.2,29.87,SSE,161,7.0,8.0,51,0.00,,,0.00,7,Wunderground v.1.15,2013-06-11 01:26:00,
2013-06-10 20:32:00,88.2,68.4,29.87,SSE,160,6.0,7.0,52,0.00,,,0.00,0,Wunderground v.1.15,2013-06-11 01:32:00,
2013-06-10 20:38:00,87.8,68.5,29.87,SSE,161,6.0,7.0,53,0.00,,,0.00,0,Wunderground v.1.15,2013-06-11 01:38:00,
2013-06-10 20:46:00,87.2,68.0,29.87,SSE,161,5.0,6.0,53,0.00,,,0.00,0,Wunderground v.1.15,2013-06-11 01:46:00,
2013-06-10 20:52:00,86.9,68.3,29.87,SSE,161,5.0,6.0,54,0.00,,,0.00,0,Wunderground v.1.15,2013-06-11 01:52:00,
2013-06-10 20:58:00,86.5,67.9,29.87,SSE,161,4.0,6.0,54,0.00,,,0.00,0,Wunderground v.1.15,2013-06-11 01:58:00,
2013-06-10 21:04:00,86.2,67.6,29.87,SSE,161,3.0,4.0,54,0.00,,,0.00,0,Wunderground v.1.15,2013-06-11 02:04:00,
2013-06-10 21:10:00,85.8,67.8,29.87,SSE,161,3.0,4.0,55,0.00,,,0.00,0,Wunderground v.1.15,2013-06-11 02:10:00,
2013-06-10 21:18:00,85.4,67.9,29.87,SSE,161,3.0,4.0,56,0.00,,,0.00,0,Wunderground v.1.15,2013-06-11 02:18:00,
2013-06-10 21:24:00,85.3,67.8,29.87,SSE,161,3.0,5.0,56,0.00,,,0.00,0,Wunderground v.1.15,2013-06-11 02:24:00,
2013-06-10 21:30:00,84.9,67.5,29.87,SSE,161,3.0,3.0,56,0.00,,,0.00,0,Wunderground v.1.15,2013-06-11 02:30:00,
2013-06-10 21:36:00,84.5,67.6,29.88,SSE,161,3.0,5.0,57,0.00,,,0.00,0,Wunderground v.1.15,2013-06-11 02:36:00,
2013-06-10 21:42:00,84.0,67.6,29.88,SSE,161,3.0,3.0,58,0.00,,,0.00,0,Wunderground v.1.15,2013-06-11 02:42:00,
2013-06-10 21:48:00,83.7,67.8,29.88,SSE,161,3.0,3.0,59,0.00,,,0.00,0,Wunderground v.1.15,2013-06-11 02:48:00,
2013-06-10 21:54:00,83.6,67.8,29.88,SSE,161,2.0,4.0,59,0.00,,,0.00,0,Wunderground v.1.15,2013-06-11 02:54:00,
2013-06-10 22:00:00,83.2,67.9,29.88,SSE,161,2.0,2.0,60,0.00,,,0.00,0,Wunderground v.1.15,2013-06-11 03:00:00,
2013-06-10 22:06:00,83.0,68.2,29.89,SSE,161,3.0,3.0,61,0.00,,,0.00,0,Wunderground v.1.15,2013-06-11 03:06:00,
2013-06-10 22:12:00,82.8,68.0,29.89,SSE,161,2.0,4.0,61,0.00,,,0.00,0,Wunderground v.1.15,2013-06-11 03:12:00,
2013-06-10 22:19:00,82.7,68.4,29.89,SSE,161,3.0,6.0,62,0.00,,,0.00,0,Wunderground v.1.15,2013-06-11 03:19:00,
2013-06-10 22:26:00,82.5,68.6,29.89,SSE,161,2.0,4.0,63,0.00,,,0.00,0,Wunderground v.1.15,2013-06-11 03:26:00,
2013-06-10 22:32:00,82.3,68.4,29.89,SSE,161,3.0,6.0,63,0.00,,,0.00,0,Wunderground v.1.15,2013-06-11 03:32:00,
2013-06-10 22:38:00,82.2,68.8,29.90,SSE,161,3.0,6.0,64,0.00,,,0.00,0,Wunderground v.1.15,2013-06-11 03:38:00,
2013-06-10 22:44:00,82.1,68.7,29.90,SSE,161,3.0,5.0,64,0.00,,,0.00,0,Wunderground v.1.15,2013-06-11 03:44:00,
2013-06-10 22:50:00,82.1,69.2,29.90,SSE,160,3.0,6.0,65,0.00,,,0.00,0,Wunderground v.1.15,2013-06-11 03:50:00,
2013-06-10 22:56:00,82.0,69.5,29.90,SSE,160,3.0,7.0,66,0.00,,,0.00,0,Wunderground v.1.15,2013-06-11 03:56:00,
2013-06-10 23:02:00,81.7,70.1,29.90,SSE,160,5.0,5.0,68,0.00,,,0.00,0,Wunderground v.1.15,2013-06-11 04:02:00,
2013-06-10 23:10:00,81.3,70.2,29.90,SSE,159,5.0,6.0,69,0.00,,,0.00,0,Wunderground v.1.15,2013-06-11 04:10:00,
2013-06-10 23:12:00,81.2,70.5,29.90,SSE,159,5.0,6.0,70,0.00,,,0.00,0,Wunderground v.1.15,2013-06-11 04:12:00,
2013-06-10 23:14:00,81.2,70.5,29.90,SSE,159,5.0,6.0,70,0.00,,,0.00,0,Wunderground v.1.15,2013-06-11 04:14:00,
2013-06-10 23:20:00,81.1,70.8,29.90,SSE,158,5.0,8.0,71,0.00,,,0.00,0,Wunderground v.1.15,2013-06-11 04:20:00,
2013-06-10 23:26:00,81.2,71.3,29.90,SSE,159,6.0,10.0,72,0.00,,,0.00,0,Wunderground v.1.15,2013-06-11 04:26:00,
2013-06-10 23:32:00,81.2,71.7,29.90,SSE,159,7.0,7.0,73,0.00,,,0.00,0,Wunderground v.1.15,2013-06-11 04:32:00,
2013-06-10 23:39:00,81.1,71.6,29.90,SSE,160,7.0,8.0,73,0.00,,,0.00,0,Wunderground v.1.15,2013-06-11 04:39:00,
2013-06-10 23:50:00,80.9,71.8,29.90,SSE,162,7.0,7.0,74,0.00,,,0.00,0,Wunderground v.1.15,2013-06-11 04:50:00,
2013-06-10 23:56:00,80.8,72.1,29.90,SSE,163,7.0,9.0,75,0.00,,,0.00,0,Wunderground v.1.15,2013-06-11 04:56:00,